sensor_id;sensor_type;location;lat;lon;timestamp;temperature;humidity
57390;DHT22;43217;52.694;6.214;2022-07-31T00:01:19;19.60;99.90
57390;DHT22;43217;52.694;6.214;2022-07-31T00:03:45;19.70;99.90
57390;DHT22;43217;52.694;6.214;2022-07-31T00:06:10;19.70;99.90
57390;DHT22;43217;52.694;6.214;2022-07-31T00:08:36;19.70;99.90
57390;DHT22;43217;52.694;6.214;2022-07-31T00:11:02;19.70;99.90
57390;DHT22;43217;52.694;6.214;2022-07-31T00:13:27;19.70;99.90
57390;DHT22;43217;52.694;6.214;2022-07-31T00:15:53;19.70;99.90
57390;DHT22;43217;52.694;6.214;2022-07-31T00:18:18;19.60;99.90
57390;DHT22;43217;52.694;6.214;2022-07-31T00:20:46;19.60;99.90
57390;DHT22;43217;52.694;6.214;2022-07-31T00:23:13;19.60;99.90
57390;DHT22;43217;52.694;6.214;2022-07-31T00:25:40;19.60;99.90
57390;DHT22;43217;52.694;6.214;2022-07-31T00:28:06;19.60;99.90
57390;DHT22;43217;52.694;6.214;2022-07-31T00:30:32;19.60;99.90
57390;DHT22;43217;52.694;6.214;2022-07-31T00:32:57;19.60;99.90
57390;DHT22;43217;52.694;6.214;2022-07-31T00:35:23;19.60;99.90
57390;DHT22;43217;52.694;6.214;2022-07-31T00:37:49;19.60;99.90
57390;DHT22;43217;52.694;6.214;2022-07-31T00:40:16;19.60;99.90
57390;DHT22;43217;52.694;6.214;2022-07-31T00:42:42;19.60;99.90
57390;DHT22;43217;52.694;6.214;2022-07-31T00:45:08;19.60;99.90
57390;DHT22;43217;52.694;6.214;2022-07-31T00:47:34;19.60;99.90
57390;DHT22;43217;52.694;6.214;2022-07-31T00:50:00;19.50;99.90
57390;DHT22;43217;52.694;6.214;2022-07-31T00:52:26;19.50;99.90
57390;DHT22;43217;52.694;6.214;2022-07-31T00:54:51;19.60;99.90
57390;DHT22;43217;52.694;6.214;2022-07-31T00:57:17;19.50;99.90
57390;DHT22;43217;52.694;6.214;2022-07-31T00:59:43;19.50;99.90
57390;DHT22;43217;52.694;6.214;2022-07-31T01:02:09;19.50;99.90
57390;DHT22;43217;52.694;6.214;2022-07-31T01:04:35;19.50;99.90
57390;DHT22;43217;52.694;6.214;2022-07-31T01:07:01;19.50;99.90
57390;DHT22;43217;52.694;6.214;2022-07-31T01:09:26;19.50;99.90
57390;DHT22;43217;52.694;6.214;2022-07-31T01:14:31;19.50;99.90
57390;DHT22;43217;52.694;6.214;2022-07-31T01:16:59;19.50;99.90
57390;DHT22;43217;52.694;6.214;2022-07-31T01:19:27;19.50;99.90
57390;DHT22;43217;52.694;6.214;2022-07-31T01:25:04;19.50;99.90
57390;DHT22;43217;52.694;6.214;2022-07-31T01:30:13;19.50;99.90
57390;DHT22;43217;52.694;6.214;2022-07-31T01:32:45;19.50;99.90
57390;DHT22;43217;52.694;6.214;2022-07-31T01:35:26;19.50;99.90
57390;DHT22;43217;52.694;6.214;2022-07-31T01:40:26;19.50;99.90
57390;DHT22;43217;52.694;6.214;2022-07-31T01:43:01;19.50;99.90
57390;DHT22;43217;52.694;6.214;2022-07-31T01:45:28;19.50;99.90
57390;DHT22;43217;52.694;6.214;2022-07-31T01:47:55;19.50;99.90
57390;DHT22;43217;52.694;6.214;2022-07-31T01:50:22;19.50;99.90
57390;DHT22;43217;52.694;6.214;2022-07-31T01:52:49;19.40;99.90
57390;DHT22;43217;52.694;6.214;2022-07-31T01:55:16;19.40;99.90
57390;DHT22;43217;52.694;6.214;2022-07-31T01:57:42;19.30;99.90
57390;DHT22;43217;52.694;6.214;2022-07-31T02:00:10;19.40;99.90
57390;DHT22;43217;52.694;6.214;2022-07-31T02:02:36;19.30;99.90
57390;DHT22;43217;52.694;6.214;2022-07-31T02:05:04;19.30;99.90
57390;DHT22;43217;52.694;6.214;2022-07-31T02:07:41;19.30;99.90
57390;DHT22;43217;52.694;6.214;2022-07-31T02:10:09;19.20;99.90
57390;DHT22;43217;52.694;6.214;2022-07-31T02:12:36;19.20;99.90
57390;DHT22;43217;52.694;6.214;2022-07-31T02:15:06;19.20;99.90
57390;DHT22;43217;52.694;6.214;2022-07-31T02:17:33;19.20;99.90
57390;DHT22;43217;52.694;6.214;2022-07-31T02:19:59;19.20;99.90
57390;DHT22;43217;52.694;6.214;2022-07-31T02:22:26;19.30;99.90
57390;DHT22;43217;52.694;6.214;2022-07-31T02:24:53;19.30;99.90
57390;DHT22;43217;52.694;6.214;2022-07-31T02:27:19;19.20;99.90
57390;DHT22;43217;52.694;6.214;2022-07-31T02:29:47;19.20;99.90
57390;DHT22;43217;52.694;6.214;2022-07-31T02:32:14;19.20;99.90
57390;DHT22;43217;52.694;6.214;2022-07-31T02:34:42;19.20;99.90
57390;DHT22;43217;52.694;6.214;2022-07-31T02:37:10;19.20;99.90
57390;DHT22;43217;52.694;6.214;2022-07-31T02:39:38;19.20;99.90
57390;DHT22;43217;52.694;6.214;2022-07-31T02:42:06;19.10;99.90
57390;DHT22;43217;52.694;6.214;2022-07-31T02:44:32;19.10;99.90
57390;DHT22;43217;52.694;6.214;2022-07-31T02:46:59;19.00;99.90
57390;DHT22;43217;52.694;6.214;2022-07-31T02:49:28;18.90;99.90
57390;DHT22;43217;52.694;6.214;2022-07-31T02:51:55;18.90;99.90
57390;DHT22;43217;52.694;6.214;2022-07-31T02:54:21;18.90;99.90
57390;DHT22;43217;52.694;6.214;2022-07-31T02:56:49;18.90;99.90
57390;DHT22;43217;52.694;6.214;2022-07-31T02:59:15;18.90;99.90
57390;DHT22;43217;52.694;6.214;2022-07-31T03:01:41;18.90;99.90
57390;DHT22;43217;52.694;6.214;2022-07-31T03:04:07;18.90;99.90
57390;DHT22;43217;52.694;6.214;2022-07-31T03:06:32;18.90;99.90
57390;DHT22;43217;52.694;6.214;2022-07-31T03:08:58;18.90;99.90
57390;DHT22;43217;52.694;6.214;2022-07-31T03:11:24;18.90;99.90
57390;DHT22;43217;52.694;6.214;2022-07-31T03:13:52;18.90;99.90
57390;DHT22;43217;52.694;6.214;2022-07-31T03:16:20;18.80;99.90
57390;DHT22;43217;52.694;6.214;2022-07-31T03:18:46;18.80;99.90
57390;DHT22;43217;52.694;6.214;2022-07-31T03:21:13;18.70;99.90
57390;DHT22;43217;52.694;6.214;2022-07-31T03:23:39;18.70;99.90
57390;DHT22;43217;52.694;6.214;2022-07-31T03:26:05;18.70;99.90
57390;DHT22;43217;52.694;6.214;2022-07-31T03:28:33;18.70;99.90
57390;DHT22;43217;52.694;6.214;2022-07-31T03:30:59;18.70;99.90
57390;DHT22;43217;52.694;6.214;2022-07-31T03:33:25;18.70;99.90
57390;DHT22;43217;52.694;6.214;2022-07-31T03:35:51;18.70;99.90
57390;DHT22;43217;52.694;6.214;2022-07-31T03:38:17;18.70;99.90
57390;DHT22;43217;52.694;6.214;2022-07-31T03:40:43;18.60;99.90
57390;DHT22;43217;52.694;6.214;2022-07-31T03:43:09;18.70;99.90
57390;DHT22;43217;52.694;6.214;2022-07-31T03:45:37;18.60;99.90
57390;DHT22;43217;52.694;6.214;2022-07-31T03:48:04;18.60;99.90
57390;DHT22;43217;52.694;6.214;2022-07-31T03:50:30;18.60;99.90
57390;DHT22;43217;52.694;6.214;2022-07-31T03:52:57;18.60;99.90
57390;DHT22;43217;52.694;6.214;2022-07-31T03:55:23;18.60;99.90
57390;DHT22;43217;52.694;6.214;2022-07-31T03:57:50;18.60;99.90
57390;DHT22;43217;52.694;6.214;2022-07-31T04:00:16;18.60;99.90
57390;DHT22;43217;52.694;6.214;2022-07-31T04:02:43;18.60;99.90
57390;DHT22;43217;52.694;6.214;2022-07-31T04:05:08;18.60;99.90
57390;DHT22;43217;52.694;6.214;2022-07-31T04:07:34;18.60;99.90
57390;DHT22;43217;52.694;6.214;2022-07-31T04:10:00;18.60;99.90
57390;DHT22;43217;52.694;6.214;2022-07-31T04:12:27;18.60;99.90
57390;DHT22;43217;52.694;6.214;2022-07-31T04:14:53;18.60;99.90
57390;DHT22;43217;52.694;6.214;2022-07-31T04:17:18;18.60;99.90
57390;DHT22;43217;52.694;6.214;2022-07-31T04:19:44;18.60;99.90
57390;DHT22;43217;52.694;6.214;2022-07-31T04:22:10;18.60;99.90
57390;DHT22;43217;52.694;6.214;2022-07-31T04:24:36;18.60;99.90
57390;DHT22;43217;52.694;6.214;2022-07-31T04:27:03;18.60;99.90
57390;DHT22;43217;52.694;6.214;2022-07-31T04:29:31;18.60;99.90
57390;DHT22;43217;52.694;6.214;2022-07-31T04:32:01;18.60;99.90
57390;DHT22;43217;52.694;6.214;2022-07-31T04:34:28;18.60;99.90
57390;DHT22;43217;52.694;6.214;2022-07-31T04:36:53;18.60;99.90
57390;DHT22;43217;52.694;6.214;2022-07-31T04:39:19;18.60;99.90
57390;DHT22;43217;52.694;6.214;2022-07-31T04:41:45;18.60;99.90
57390;DHT22;43217;52.694;6.214;2022-07-31T04:44:11;18.60;99.90
57390;DHT22;43217;52.694;6.214;2022-07-31T04:46:36;18.60;99.90
57390;DHT22;43217;52.694;6.214;2022-07-31T04:49:02;18.70;99.90
57390;DHT22;43217;52.694;6.214;2022-07-31T04:51:27;18.70;99.90
57390;DHT22;43217;52.694;6.214;2022-07-31T04:53:53;18.60;99.90
57390;DHT22;43217;52.694;6.214;2022-07-31T04:56:19;18.60;99.90
57390;DHT22;43217;52.694;6.214;2022-07-31T04:59:06;18.70;99.90
57390;DHT22;43217;52.694;6.214;2022-07-31T05:01:32;18.70;99.90
57390;DHT22;43217;52.694;6.214;2022-07-31T05:03:58;18.70;99.90
57390;DHT22;43217;52.694;6.214;2022-07-31T05:06:35;18.80;99.90
57390;DHT22;43217;52.694;6.214;2022-07-31T05:09:02;18.80;99.90
57390;DHT22;43217;52.694;6.214;2022-07-31T05:11:28;18.80;99.90
57390;DHT22;43217;52.694;6.214;2022-07-31T05:13:55;18.80;99.90
57390;DHT22;43217;52.694;6.214;2022-07-31T05:16:22;18.70;99.90
57390;DHT22;43217;52.694;6.214;2022-07-31T05:18:48;18.80;99.90
57390;DHT22;43217;52.694;6.214;2022-07-31T05:21:14;18.80;99.90
57390;DHT22;43217;52.694;6.214;2022-07-31T05:23:41;18.80;99.90
57390;DHT22;43217;52.694;6.214;2022-07-31T05:26:07;18.80;99.90
57390;DHT22;43217;52.694;6.214;2022-07-31T05:28:34;18.80;99.90
57390;DHT22;43217;52.694;6.214;2022-07-31T05:31:00;18.90;99.90
57390;DHT22;43217;52.694;6.214;2022-07-31T05:33:26;18.90;99.90
57390;DHT22;43217;52.694;6.214;2022-07-31T05:35:53;18.90;99.90
57390;DHT22;43217;52.694;6.214;2022-07-31T05:38:18;18.90;99.90
57390;DHT22;43217;52.694;6.214;2022-07-31T05:40:44;18.90;99.90
57390;DHT22;43217;52.694;6.214;2022-07-31T05:43:09;19.00;99.90
57390;DHT22;43217;52.694;6.214;2022-07-31T05:45:35;19.00;99.90
57390;DHT22;43217;52.694;6.214;2022-07-31T05:48:01;19.00;99.90
57390;DHT22;43217;52.694;6.214;2022-07-31T05:50:27;19.10;99.90
57390;DHT22;43217;52.694;6.214;2022-07-31T05:52:52;19.10;99.90
57390;DHT22;43217;52.694;6.214;2022-07-31T05:55:19;19.20;99.90
57390;DHT22;43217;52.694;6.214;2022-07-31T05:57:45;19.20;99.90
57390;DHT22;43217;52.694;6.214;2022-07-31T06:00:11;19.30;99.90
57390;DHT22;43217;52.694;6.214;2022-07-31T06:02:37;19.30;99.90
57390;DHT22;43217;52.694;6.214;2022-07-31T06:05:03;19.30;99.90
57390;DHT22;43217;52.694;6.214;2022-07-31T06:07:29;19.40;99.90
57390;DHT22;43217;52.694;6.214;2022-07-31T06:09:54;19.40;99.90
57390;DHT22;43217;52.694;6.214;2022-07-31T06:12:20;19.40;99.90
57390;DHT22;43217;52.694;6.214;2022-07-31T06:14:45;19.40;99.90
57390;DHT22;43217;52.694;6.214;2022-07-31T06:17:11;19.50;99.90
57390;DHT22;43217;52.694;6.214;2022-07-31T06:19:37;19.60;99.90
57390;DHT22;43217;52.694;6.214;2022-07-31T06:22:02;19.60;99.90
57390;DHT22;43217;52.694;6.214;2022-07-31T06:24:28;19.60;99.90
57390;DHT22;43217;52.694;6.214;2022-07-31T06:26:58;19.70;99.90
57390;DHT22;43217;52.694;6.214;2022-07-31T06:29:24;19.80;99.90
57390;DHT22;43217;52.694;6.214;2022-07-31T06:31:50;19.90;99.90
57390;DHT22;43217;52.694;6.214;2022-07-31T06:34:15;20.00;99.90
57390;DHT22;43217;52.694;6.214;2022-07-31T06:36:41;20.10;99.90
57390;DHT22;43217;52.694;6.214;2022-07-31T06:39:07;20.30;99.90
57390;DHT22;43217;52.694;6.214;2022-07-31T06:41:32;20.30;99.90
57390;DHT22;43217;52.694;6.214;2022-07-31T06:44:14;20.40;99.90
57390;DHT22;43217;52.694;6.214;2022-07-31T06:46:40;20.40;99.90
57390;DHT22;43217;52.694;6.214;2022-07-31T06:49:05;20.50;99.90
57390;DHT22;43217;52.694;6.214;2022-07-31T06:51:32;20.40;99.90
57390;DHT22;43217;52.694;6.214;2022-07-31T06:53:59;20.40;99.90
57390;DHT22;43217;52.694;6.214;2022-07-31T06:56:25;20.40;99.90
57390;DHT22;43217;52.694;6.214;2022-07-31T06:58:50;20.30;99.90
57390;DHT22;43217;52.694;6.214;2022-07-31T07:01:16;20.30;99.90
57390;DHT22;43217;52.694;6.214;2022-07-31T07:03:41;20.30;99.90
57390;DHT22;43217;52.694;6.214;2022-07-31T07:06:07;20.30;99.90
57390;DHT22;43217;52.694;6.214;2022-07-31T07:08:33;20.30;99.90
57390;DHT22;43217;52.694;6.214;2022-07-31T07:10:58;20.30;99.90
57390;DHT22;43217;52.694;6.214;2022-07-31T07:13:24;20.40;99.90
57390;DHT22;43217;52.694;6.214;2022-07-31T07:15:52;20.40;99.90
57390;DHT22;43217;52.694;6.214;2022-07-31T07:18:18;20.50;99.90
57390;DHT22;43217;52.694;6.214;2022-07-31T07:20:46;20.40;99.90
57390;DHT22;43217;52.694;6.214;2022-07-31T07:23:12;20.40;99.90
57390;DHT22;43217;52.694;6.214;2022-07-31T07:25:38;20.50;99.90
57390;DHT22;43217;52.694;6.214;2022-07-31T07:28:03;20.50;99.90
57390;DHT22;43217;52.694;6.214;2022-07-31T07:30:29;20.50;99.90
57390;DHT22;43217;52.694;6.214;2022-07-31T07:32:54;20.50;99.90
57390;DHT22;43217;52.694;6.214;2022-07-31T07:35:20;20.60;99.90
57390;DHT22;43217;52.694;6.214;2022-07-31T07:37:47;20.70;99.90
57390;DHT22;43217;52.694;6.214;2022-07-31T07:40:13;20.70;99.90
57390;DHT22;43217;52.694;6.214;2022-07-31T07:42:39;20.80;99.90
57390;DHT22;43217;52.694;6.214;2022-07-31T07:45:05;20.80;99.90
57390;DHT22;43217;52.694;6.214;2022-07-31T07:47:31;20.90;99.90
57390;DHT22;43217;52.694;6.214;2022-07-31T07:49:56;21.00;99.90
57390;DHT22;43217;52.694;6.214;2022-07-31T07:52:22;21.00;99.90
57390;DHT22;43217;52.694;6.214;2022-07-31T07:54:48;21.10;99.90
57390;DHT22;43217;52.694;6.214;2022-07-31T07:57:17;21.20;99.90
57390;DHT22;43217;52.694;6.214;2022-07-31T07:59:45;21.30;99.90
57390;DHT22;43217;52.694;6.214;2022-07-31T08:02:10;21.40;99.90
57390;DHT22;43217;52.694;6.214;2022-07-31T08:04:39;21.50;99.90
57390;DHT22;43217;52.694;6.214;2022-07-31T08:07:05;21.50;99.90
57390;DHT22;43217;52.694;6.214;2022-07-31T08:09:31;21.50;99.90
57390;DHT22;43217;52.694;6.214;2022-07-31T08:11:58;21.50;99.90
57390;DHT22;43217;52.694;6.214;2022-07-31T08:14:24;21.40;99.90
57390;DHT22;43217;52.694;6.214;2022-07-31T08:16:50;21.40;99.90
57390;DHT22;43217;52.694;6.214;2022-07-31T08:19:16;21.40;99.90
57390;DHT22;43217;52.694;6.214;2022-07-31T08:21:42;21.50;99.90
57390;DHT22;43217;52.694;6.214;2022-07-31T08:24:07;21.50;99.90
57390;DHT22;43217;52.694;6.214;2022-07-31T08:26:35;21.50;99.90
57390;DHT22;43217;52.694;6.214;2022-07-31T08:29:19;21.50;99.90
57390;DHT22;43217;52.694;6.214;2022-07-31T08:31:45;21.50;99.90
57390;DHT22;43217;52.694;6.214;2022-07-31T08:34:11;21.50;99.90
57390;DHT22;43217;52.694;6.214;2022-07-31T08:36:37;21.40;99.90
57390;DHT22;43217;52.694;6.214;2022-07-31T08:39:03;21.40;99.90
57390;DHT22;43217;52.694;6.214;2022-07-31T08:41:29;21.40;99.90
57390;DHT22;43217;52.694;6.214;2022-07-31T08:43:58;21.30;99.90
57390;DHT22;43217;52.694;6.214;2022-07-31T08:46:25;21.30;99.90
57390;DHT22;43217;52.694;6.214;2022-07-31T08:48:55;21.30;99.90
57390;DHT22;43217;52.694;6.214;2022-07-31T08:51:22;21.20;99.90
57390;DHT22;43217;52.694;6.214;2022-07-31T08:53:49;21.10;99.90
57390;DHT22;43217;52.694;6.214;2022-07-31T08:56:16;21.00;99.90
57390;DHT22;43217;52.694;6.214;2022-07-31T08:58:42;20.90;99.90
57390;DHT22;43217;52.694;6.214;2022-07-31T09:01:10;20.90;99.90
57390;DHT22;43217;52.694;6.214;2022-07-31T09:03:36;20.80;99.90
57390;DHT22;43217;52.694;6.214;2022-07-31T09:06:03;20.80;99.90
57390;DHT22;43217;52.694;6.214;2022-07-31T09:08:32;20.80;99.90
57390;DHT22;43217;52.694;6.214;2022-07-31T09:11:03;20.70;99.90
57390;DHT22;43217;52.694;6.214;2022-07-31T09:13:29;20.70;99.90
57390;DHT22;43217;52.694;6.214;2022-07-31T09:15:57;20.70;99.90
57390;DHT22;43217;52.694;6.214;2022-07-31T09:18:23;20.70;99.90
57390;DHT22;43217;52.694;6.214;2022-07-31T09:20:58;20.80;99.90
57390;DHT22;43217;52.694;6.214;2022-07-31T09:23:25;20.80;99.90
57390;DHT22;43217;52.694;6.214;2022-07-31T09:26:02;20.70;99.90
57390;DHT22;43217;52.694;6.214;2022-07-31T09:28:36;20.70;99.90
57390;DHT22;43217;52.694;6.214;2022-07-31T09:31:03;20.70;99.90
57390;DHT22;43217;52.694;6.214;2022-07-31T09:33:29;20.70;99.90
57390;DHT22;43217;52.694;6.214;2022-07-31T09:35:57;20.60;99.90
57390;DHT22;43217;52.694;6.214;2022-07-31T09:38:31;20.60;99.90
57390;DHT22;43217;52.694;6.214;2022-07-31T09:41:17;20.60;99.90
57390;DHT22;43217;52.694;6.214;2022-07-31T09:43:57;20.70;99.90
57390;DHT22;43217;52.694;6.214;2022-07-31T09:46:44;20.70;99.90
57390;DHT22;43217;52.694;6.214;2022-07-31T09:49:10;20.70;99.90
57390;DHT22;43217;52.694;6.214;2022-07-31T09:51:44;20.80;99.90
57390;DHT22;43217;52.694;6.214;2022-07-31T09:54:21;20.80;99.90
57390;DHT22;43217;52.694;6.214;2022-07-31T09:56:47;20.70;99.90
57390;DHT22;43217;52.694;6.214;2022-07-31T09:59:14;20.70;99.90
57390;DHT22;43217;52.694;6.214;2022-07-31T10:01:41;20.60;99.90
57390;DHT22;43217;52.694;6.214;2022-07-31T10:04:07;20.70;99.90
57390;DHT22;43217;52.694;6.214;2022-07-31T10:06:34;20.70;99.90
57390;DHT22;43217;52.694;6.214;2022-07-31T10:09:02;20.70;99.90
57390;DHT22;43217;52.694;6.214;2022-07-31T10:11:29;20.70;99.90
57390;DHT22;43217;52.694;6.214;2022-07-31T10:13:59;20.70;99.90
57390;DHT22;43217;52.694;6.214;2022-07-31T10:16:26;20.70;99.90
57390;DHT22;43217;52.694;6.214;2022-07-31T10:18:59;20.70;99.90
57390;DHT22;43217;52.694;6.214;2022-07-31T10:21:34;20.70;99.90
57390;DHT22;43217;52.694;6.214;2022-07-31T10:24:03;20.60;99.90
57390;DHT22;43217;52.694;6.214;2022-07-31T10:26:29;20.60;99.90
57390;DHT22;43217;52.694;6.214;2022-07-31T10:28:56;20.40;99.90
57390;DHT22;43217;52.694;6.214;2022-07-31T10:31:22;20.40;99.90
57390;DHT22;43217;52.694;6.214;2022-07-31T10:33:48;20.30;99.90
57390;DHT22;43217;52.694;6.214;2022-07-31T10:36:26;20.40;99.90
57390;DHT22;43217;52.694;6.214;2022-07-31T10:39:21;20.40;99.90
57390;DHT22;43217;52.694;6.214;2022-07-31T10:44:44;20.50;99.90
57390;DHT22;43217;52.694;6.214;2022-07-31T10:47:12;20.40;99.90
57390;DHT22;43217;52.694;6.214;2022-07-31T10:49:47;20.30;99.90
57390;DHT22;43217;52.694;6.214;2022-07-31T10:52:13;20.30;99.90
57390;DHT22;43217;52.694;6.214;2022-07-31T10:54:45;20.30;99.90
57390;DHT22;43217;52.694;6.214;2022-07-31T10:57:24;20.30;99.90
57390;DHT22;43217;52.694;6.214;2022-07-31T10:59:50;20.40;99.90
57390;DHT22;43217;52.694;6.214;2022-07-31T11:02:35;20.20;99.90
57390;DHT22;43217;52.694;6.214;2022-07-31T11:05:09;20.20;99.90
57390;DHT22;43217;52.694;6.214;2022-07-31T11:07:35;20.20;99.90
57390;DHT22;43217;52.694;6.214;2022-07-31T11:12:38;20.10;99.90
57390;DHT22;43217;52.694;6.214;2022-07-31T11:15:15;20.00;99.90
57390;DHT22;43217;52.694;6.214;2022-07-31T11:17:41;19.90;99.90
57390;DHT22;43217;52.694;6.214;2022-07-31T11:20:28;19.70;99.90
57390;DHT22;43217;52.694;6.214;2022-07-31T11:23:02;19.70;99.90
57390;DHT22;43217;52.694;6.214;2022-07-31T11:25:30;19.60;99.90
57390;DHT22;43217;52.694;6.214;2022-07-31T11:28:17;19.60;99.90
57390;DHT22;43217;52.694;6.214;2022-07-31T11:35:53;19.60;99.90
57390;DHT22;43217;52.694;6.214;2022-07-31T11:38:24;19.60;99.90
57390;DHT22;43217;52.694;6.214;2022-07-31T11:40:50;19.60;99.90
57390;DHT22;43217;52.694;6.214;2022-07-31T11:43:16;19.50;99.90
57390;DHT22;43217;52.694;6.214;2022-07-31T11:45:49;19.50;99.90
57390;DHT22;43217;52.694;6.214;2022-07-31T11:48:17;19.60;99.90
57390;DHT22;43217;52.694;6.214;2022-07-31T11:50:43;19.60;99.90
57390;DHT22;43217;52.694;6.214;2022-07-31T11:53:10;19.70;99.90
57390;DHT22;43217;52.694;6.214;2022-07-31T11:55:56;19.80;99.90
57390;DHT22;43217;52.694;6.214;2022-07-31T11:58:25;19.80;99.90
57390;DHT22;43217;52.694;6.214;2022-07-31T12:00:56;19.80;99.90
57390;DHT22;43217;52.694;6.214;2022-07-31T12:03:34;19.80;99.90
57390;DHT22;43217;52.694;6.214;2022-07-31T12:06:04;19.80;99.90
57390;DHT22;43217;52.694;6.214;2022-07-31T12:08:34;19.90;99.90
57390;DHT22;43217;52.694;6.214;2022-07-31T12:11:01;19.90;99.90
57390;DHT22;43217;52.694;6.214;2022-07-31T12:13:28;19.90;99.90
57390;DHT22;43217;52.694;6.214;2022-07-31T12:18:28;19.80;99.90
57390;DHT22;43217;52.694;6.214;2022-07-31T12:20:59;19.80;99.90
57390;DHT22;43217;52.694;6.214;2022-07-31T12:23:50;19.80;99.90
57390;DHT22;43217;52.694;6.214;2022-07-31T12:26:26;19.80;99.90
57390;DHT22;43217;52.694;6.214;2022-07-31T12:29:07;19.90;99.90
57390;DHT22;43217;52.694;6.214;2022-07-31T12:31:47;19.90;99.90
57390;DHT22;43217;52.694;6.214;2022-07-31T12:34:34;20.00;99.90
57390;DHT22;43217;52.694;6.214;2022-07-31T12:37:07;19.90;99.90
57390;DHT22;43217;52.694;6.214;2022-07-31T12:39:49;19.90;99.90
57390;DHT22;43217;52.694;6.214;2022-07-31T12:42:29;19.90;99.90
57390;DHT22;43217;52.694;6.214;2022-07-31T12:44:58;19.90;99.90
57390;DHT22;43217;52.694;6.214;2022-07-31T12:47:29;19.90;99.90
57390;DHT22;43217;52.694;6.214;2022-07-31T12:49:59;19.90;99.90
57390;DHT22;43217;52.694;6.214;2022-07-31T12:52:29;20.00;99.90
57390;DHT22;43217;52.694;6.214;2022-07-31T12:55:01;20.00;99.90
57390;DHT22;43217;52.694;6.214;2022-07-31T12:57:30;20.00;99.90
57390;DHT22;43217;52.694;6.214;2022-07-31T12:59:55;20.00;99.90
57390;DHT22;43217;52.694;6.214;2022-07-31T13:02:21;20.00;99.90
57390;DHT22;43217;52.694;6.214;2022-07-31T13:04:47;20.00;99.90
57390;DHT22;43217;52.694;6.214;2022-07-31T13:07:15;20.00;99.90
57390;DHT22;43217;52.694;6.214;2022-07-31T13:09:41;19.90;99.90
57390;DHT22;43217;52.694;6.214;2022-07-31T13:12:07;19.90;99.90
57390;DHT22;43217;52.694;6.214;2022-07-31T13:14:33;19.90;99.90
57390;DHT22;43217;52.694;6.214;2022-07-31T13:17:04;19.90;99.90
57390;DHT22;43217;52.694;6.214;2022-07-31T13:19:30;19.90;99.90
57390;DHT22;43217;52.694;6.214;2022-07-31T13:21:55;19.90;99.90
57390;DHT22;43217;52.694;6.214;2022-07-31T13:24:21;19.90;99.90
57390;DHT22;43217;52.694;6.214;2022-07-31T13:26:50;19.90;99.90
57390;DHT22;43217;52.694;6.214;2022-07-31T13:29:16;19.90;99.90
57390;DHT22;43217;52.694;6.214;2022-07-31T13:31:41;19.90;99.90
57390;DHT22;43217;52.694;6.214;2022-07-31T13:34:07;19.90;99.90
57390;DHT22;43217;52.694;6.214;2022-07-31T13:36:33;19.90;99.90
57390;DHT22;43217;52.694;6.214;2022-07-31T13:38:59;20.00;99.90
57390;DHT22;43217;52.694;6.214;2022-07-31T13:41:24;20.00;99.90
57390;DHT22;43217;52.694;6.214;2022-07-31T13:43:57;20.00;99.90
57390;DHT22;43217;52.694;6.214;2022-07-31T13:46:24;20.00;99.90
57390;DHT22;43217;52.694;6.214;2022-07-31T13:48:53;20.00;99.90
57390;DHT22;43217;52.694;6.214;2022-07-31T13:51:20;19.90;99.90
57390;DHT22;43217;52.694;6.214;2022-07-31T13:53:45;19.90;99.90
57390;DHT22;43217;52.694;6.214;2022-07-31T13:56:17;20.00;99.90
57390;DHT22;43217;52.694;6.214;2022-07-31T13:58:44;20.00;99.90
57390;DHT22;43217;52.694;6.214;2022-07-31T14:01:09;20.00;99.90
57390;DHT22;43217;52.694;6.214;2022-07-31T14:03:35;20.00;99.90
57390;DHT22;43217;52.694;6.214;2022-07-31T14:06:01;20.10;99.90
57390;DHT22;43217;52.694;6.214;2022-07-31T14:08:26;20.20;99.90
57390;DHT22;43217;52.694;6.214;2022-07-31T14:10:52;20.20;99.90
57390;DHT22;43217;52.694;6.214;2022-07-31T14:13:18;20.30;99.90
57390;DHT22;43217;52.694;6.214;2022-07-31T14:15:45;20.40;99.90
57390;DHT22;43217;52.694;6.214;2022-07-31T14:18:11;20.50;99.90
57390;DHT22;43217;52.694;6.214;2022-07-31T14:20:36;20.50;99.90
57390;DHT22;43217;52.694;6.214;2022-07-31T14:23:03;20.50;99.90
57390;DHT22;43217;52.694;6.214;2022-07-31T14:25:30;20.60;99.90
57390;DHT22;43217;52.694;6.214;2022-07-31T14:27:58;20.60;99.90
57390;DHT22;43217;52.694;6.214;2022-07-31T14:30:24;20.60;99.90
57390;DHT22;43217;52.694;6.214;2022-07-31T14:32:50;20.70;99.90
57390;DHT22;43217;52.694;6.214;2022-07-31T14:35:18;20.80;99.90
57390;DHT22;43217;52.694;6.214;2022-07-31T14:37:44;20.90;99.90
57390;DHT22;43217;52.694;6.214;2022-07-31T14:40:15;21.00;99.90
57390;DHT22;43217;52.694;6.214;2022-07-31T14:42:41;21.00;99.90
57390;DHT22;43217;52.694;6.214;2022-07-31T14:45:08;21.00;99.90
57390;DHT22;43217;52.694;6.214;2022-07-31T14:47:34;21.00;99.90
57390;DHT22;43217;52.694;6.214;2022-07-31T14:49:59;20.90;99.90
57390;DHT22;43217;52.694;6.214;2022-07-31T14:52:28;20.90;99.90
57390;DHT22;43217;52.694;6.214;2022-07-31T14:54:54;20.90;99.90
57390;DHT22;43217;52.694;6.214;2022-07-31T14:57:20;20.90;99.90
57390;DHT22;43217;52.694;6.214;2022-07-31T14:59:45;20.80;99.90
57390;DHT22;43217;52.694;6.214;2022-07-31T15:02:14;20.80;99.90
57390;DHT22;43217;52.694;6.214;2022-07-31T15:04:39;20.70;99.90
57390;DHT22;43217;52.694;6.214;2022-07-31T15:07:05;20.80;99.90
57390;DHT22;43217;52.694;6.214;2022-07-31T15:09:30;20.80;99.90
57390;DHT22;43217;52.694;6.214;2022-07-31T15:11:57;20.80;99.90
57390;DHT22;43217;52.694;6.214;2022-07-31T15:14:23;20.80;99.90
57390;DHT22;43217;52.694;6.214;2022-07-31T15:16:48;20.80;99.90
57390;DHT22;43217;52.694;6.214;2022-07-31T15:19:14;20.80;99.90
57390;DHT22;43217;52.694;6.214;2022-07-31T15:21:43;20.90;99.90
57390;DHT22;43217;52.694;6.214;2022-07-31T15:24:12;20.90;99.90
57390;DHT22;43217;52.694;6.214;2022-07-31T15:26:38;20.90;99.90
57390;DHT22;43217;52.694;6.214;2022-07-31T15:29:03;20.80;99.90
57390;DHT22;43217;52.694;6.214;2022-07-31T15:31:29;20.80;99.90
57390;DHT22;43217;52.694;6.214;2022-07-31T15:33:54;20.80;99.90
57390;DHT22;43217;52.694;6.214;2022-07-31T15:36:24;20.70;99.90
57390;DHT22;43217;52.694;6.214;2022-07-31T15:38:49;20.70;99.90
57390;DHT22;43217;52.694;6.214;2022-07-31T15:41:15;20.70;99.90
57390;DHT22;43217;52.694;6.214;2022-07-31T15:43:43;20.70;99.90
57390;DHT22;43217;52.694;6.214;2022-07-31T15:46:09;20.60;99.90
57390;DHT22;43217;52.694;6.214;2022-07-31T15:48:36;20.60;99.90
57390;DHT22;43217;52.694;6.214;2022-07-31T15:51:03;20.60;99.90
57390;DHT22;43217;52.694;6.214;2022-07-31T15:53:29;20.60;99.90
57390;DHT22;43217;52.694;6.214;2022-07-31T15:55:55;20.50;99.90
57390;DHT22;43217;52.694;6.214;2022-07-31T15:58:21;20.40;99.90